Gradyville, KY (42742)

8:40 AM CST on February 14, 2016 (GMT -0600)
Clover Lick Creek | | Change Station
CLOSE
Current Station
Personal Weather Station
Location: Greensburg, KY
Elevation: 709 ft
Nearby Weather Stations
Active Advisory: Winter Storm Warning

Elev 709 ft 37.22 °N, 85.46 °W | Updated 14 minutes ago

Overcast
Overcast
19.4 °F
Feels Like 19 °F
N
2.7
Wind Variable Wind from SSW

Today
High -- | Low -- °F
--% Chance of Precip.
Yesterday
High -- | Low -- °F
Precip. -- in
Pressure 30.36 in
Visibility 10.0 miles
Clouds Scattered Clouds 2700 ft
Scattered Clouds 3100 ft
Overcast 7000 ft
Windchill 19 °F
Dew Point 15 °F
Humidity 82%
Rainfall 0.00 in
Snow Depth Not available.
6:32 AM 5:20 PM
Waxing Crescent, 42% visible
METAR KGLW 141410Z AUTO 09009KT 10SM SCT027 SCT031 OVC070 M06/M09 A3036 RMK AO2 T10621092
Pressure 30.36 in
Visibility 10.0 miles
Clouds Scattered Clouds 2700 ft
Scattered Clouds 3100 ft
Overcast 7000 ft
Windchill 19 °F
Dew Point 15 °F
Humidity 82%
Rainfall 0.00 in
Snow Depth Not available.
6:32 AM 5:20 PM
Waxing Crescent, 42% visible
METAR KGLW 141410Z AUTO 09009KT 10SM SCT027 SCT031 OVC070 M06/M09 A3036 RMK AO2 T10621092

10-Day Weather Forecast

Almanac

Astronomy

Feb. 14, 2016 Rise Set
Actual Time
Civil Twilight
Nautical Twilight
Astronomical Twilight
Moon
Length of Visible Light
Length of Day
Tomorrow will be .
, % of the Moon is Illuminated

Today's Extremes

State Highs State Lows

Community

WunderPhotos

Upload Photos

1,892,773 photos uploaded!

WunderBlog® & News

Nearby

Air Quality

  Air Quality AQ Index Pollutant
Not available.

Snow Depth

Station Depth Elevation

Earthquake Activity

City Distance Mag. Time & Date
Minimum magnitude displayed is 2.5.

Coastal Water Temperatures

Place Temperature

Stations

Nearby Weather Stations

Station Location Temp. Windchill Dew Point Humidity Wind Precip. Elev Updated Type
                   

Watches & Warnings

Winter Storm Warning
Issued: 3:11 AM CST Feb. 14, 2016 – National Weather Service

... Winter Storm Warning in effect from 10 am EST /9 am CST/ this
morning to 10 am EST /9 am CST/ Monday...

The National Weather Service in Louisville has issued a Winter
Storm Warning for snow... which is in effect from 10 am EST /9 am
CST/ this morning to 10 am EST /9 am CST/ Monday. The Winter
Weather Advisory is no longer in effect.

* Timing... light snow will begin Sunday morning... becoming
heavier Sunday afternoon and evening.

* Main impact... 3 to 5 inches of snow will be possible by late
Sunday night. Travel will become difficult at times this
afternoon and this evening.

* Other impacts... there is a chance of a brief period of
freezing drizzle late Sunday night before transitioning to
drizzle or rain Monday morning.

Precautionary/preparedness actions...

A Winter Storm Warning for snow means severe winter weather
conditions are expected or occurring. Significant amounts of snow
are forecast that will make travel dangerous.